createdAt,value
2022-12-09T00:01:22.079Z,7.78
2022-12-09T00:03:50.931Z,7.65
2022-12-09T00:06:21.308Z,7.40
2022-12-09T00:08:50.075Z,7.56
2022-12-09T00:11:20.305Z,7.62
2022-12-09T00:13:50.178Z,7.65
2022-12-09T00:16:18.701Z,7.50
2022-12-09T00:18:46.974Z,7.46
2022-12-09T00:21:16.460Z,7.43
2022-12-09T00:23:44.515Z,7.45
2022-12-09T00:26:12.911Z,7.53
2022-12-09T00:28:42.674Z,7.56
2022-12-09T00:31:14.141Z,7.56
2022-12-09T00:33:42.532Z,7.59
2022-12-09T00:36:14.590Z,7.65
2022-12-09T00:38:43.452Z,7.63
2022-12-09T00:41:12.649Z,7.64
2022-12-09T00:43:43.263Z,7.66
2022-12-09T00:46:12.135Z,7.67
2022-12-09T00:48:41.327Z,7.64
2022-12-09T00:51:12.024Z,7.47
2022-12-09T00:53:40.194Z,7.46
2022-12-09T00:56:08.431Z,7.41
2022-12-09T00:58:36.862Z,7.44
2022-12-09T01:01:06.611Z,7.48
2022-12-09T01:03:37.648Z,7.49
2022-12-09T01:06:12.222Z,7.52
2022-12-09T01:08:42.447Z,7.50
2022-12-09T01:11:13.424Z,7.54
2022-12-09T01:13:41.836Z,7.48
2022-12-09T01:16:17.298Z,7.43
2022-12-09T01:18:46.927Z,6.99
2022-12-09T01:21:15.796Z,6.53
2022-12-09T01:23:44.124Z,6.34
2022-12-09T01:26:12.889Z,6.31
2022-12-09T01:28:41.294Z,6.23
2022-12-09T01:31:12.185Z,6.42
2022-12-09T01:33:44.067Z,6.48
2022-12-09T01:36:16.283Z,6.48
2022-12-09T01:38:44.820Z,5.94
2022-12-09T01:41:13.352Z,6.40
2022-12-09T01:43:42.773Z,6.41
2022-12-09T01:46:11.387Z,6.39
2022-12-09T01:48:43.427Z,6.76
2022-12-09T01:51:16.888Z,6.85
2022-12-09T01:53:49.139Z,6.95
2022-12-09T01:56:21.240Z,7.06
2022-12-09T01:58:50.376Z,7.11
2022-12-09T02:01:20.004Z,7.14
2022-12-09T02:03:49.774Z,7.19
2022-12-09T02:06:18.631Z,7.26
2022-12-09T02:08:49.647Z,7.36
2022-12-09T02:11:28.436Z,7.21
2022-12-09T02:14:02.973Z,7.32
2022-12-09T02:16:37.260Z,7.37
2022-12-09T02:19:19.353Z,7.45
2022-12-09T02:21:54.973Z,7.51
2022-12-09T02:24:32.216Z,7.53
2022-12-09T02:27:07.474Z,7.56
2022-12-09T02:29:54.665Z,7.59
2022-12-09T02:32:52.782Z,7.63
2022-12-09T02:35:27.984Z,7.67
2022-12-09T02:38:01.881Z,7.62
2022-12-09T02:40:35.363Z,7.66
2022-12-09T02:43:07.436Z,7.67
2022-12-09T02:45:38.813Z,7.67
2022-12-09T02:48:11.065Z,7.64
2022-12-09T02:50:43.582Z,7.57
2022-12-09T02:53:14.824Z,7.55
2022-12-09T02:55:46.393Z,7.57
2022-12-09T02:58:14.420Z,7.57
2022-12-09T03:00:43.200Z,7.57
2022-12-09T03:03:19.239Z,7.46
2022-12-09T03:05:57.695Z,7.57
2022-12-09T03:08:32.608Z,7.49
2022-12-09T03:11:04.504Z,7.49
2022-12-09T03:13:41.130Z,7.57
2022-12-09T03:16:16.283Z,7.58
2022-12-09T03:18:49.263Z,7.50
2022-12-09T03:21:22.568Z,7.47
2022-12-09T03:23:56.155Z,7.48
2022-12-09T03:26:28.600Z,7.50
2022-12-09T03:28:59.836Z,7.53
2022-12-09T03:31:31.924Z,7.45
2022-12-09T03:34:04.683Z,7.37
2022-12-09T03:36:38.075Z,7.39
2022-12-09T03:39:09.251Z,7.40
2022-12-09T03:41:39.807Z,7.42
2022-12-09T03:44:13.910Z,7.44
2022-12-09T03:46:42.663Z,7.45
2022-12-09T03:49:11.097Z,7.46
2022-12-09T03:51:46.208Z,7.47
2022-12-09T03:54:18.352Z,7.44
2022-12-09T03:56:48.730Z,7.39
2022-12-09T03:59:17.395Z,7.39
2022-12-09T04:01:47.349Z,7.36
2022-12-09T04:04:16.928Z,7.35
2022-12-09T04:06:46.495Z,7.34
2022-12-09T04:09:14.877Z,7.28
2022-12-09T04:11:43.021Z,7.26
2022-12-09T04:14:15.558Z,7.18
2022-12-09T04:16:45.321Z,7.12
2022-12-09T04:19:13.738Z,7.17
2022-12-09T04:21:42.041Z,7.06
2022-12-09T04:24:11.575Z,7.01
2022-12-09T04:26:39.725Z,6.99
2022-12-09T04:29:08.265Z,6.98
2022-12-09T04:31:36.636Z,6.99
2022-12-09T04:34:09.195Z,6.99
2022-12-09T04:36:38.132Z,6.89
2022-12-09T04:39:06.326Z,6.97
2022-12-09T04:41:36.794Z,6.96
2022-12-09T04:44:05.701Z,6.93
2022-12-09T04:46:34.211Z,6.73
2022-12-09T04:49:02.410Z,6.76
2022-12-09T04:51:35.787Z,6.74
2022-12-09T04:54:07.813Z,6.47
2022-12-09T04:56:37.485Z,6.62
2022-12-09T04:59:06.487Z,6.67
2022-12-09T05:01:34.846Z,6.71
2022-12-09T05:04:04.178Z,6.74
2022-12-09T05:06:32.796Z,6.73
2022-12-09T05:09:01.193Z,6.72
2022-12-09T05:11:29.748Z,6.76
2022-12-09T05:13:59.705Z,6.76
2022-12-09T05:16:28.185Z,6.76
2022-12-09T05:18:56.500Z,6.75
2022-12-09T05:21:25.280Z,6.78
2022-12-09T05:23:53.598Z,6.75
2022-12-09T05:26:23.888Z,6.74
2022-12-09T05:28:52.611Z,6.71
2022-12-09T05:31:24.552Z,6.67
2022-12-09T05:33:53.365Z,6.65
2022-12-09T05:36:24.335Z,6.61
2022-12-09T05:38:53.337Z,6.54
2022-12-09T05:41:22.913Z,6.55
2022-12-09T05:43:51.319Z,6.49
2022-12-09T05:46:19.903Z,6.47
2022-12-09T05:48:49.941Z,6.43
2022-12-09T05:51:24.623Z,6.40
2022-12-09T05:53:53.836Z,6.34
2022-12-09T05:56:24.573Z,6.29
2022-12-09T05:58:54.038Z,6.25
2022-12-09T06:01:22.898Z,6.23
2022-12-09T06:03:54.181Z,6.18
2022-12-09T06:06:26.746Z,6.12
2022-12-09T06:08:58.086Z,6.02
2022-12-09T06:11:27.884Z,5.98
2022-12-09T06:13:56.777Z,5.95
2022-12-09T06:16:25.840Z,5.91
2022-12-09T06:18:55.998Z,5.88
2022-12-09T06:21:24.616Z,5.85
2022-12-09T06:23:52.897Z,5.82
2022-12-09T06:26:23.185Z,5.79
2022-12-09T06:28:51.604Z,5.76
2022-12-09T06:31:20.526Z,5.73
2022-12-09T06:33:58.378Z,5.70
2022-12-09T06:36:30.240Z,5.68
2022-12-09T06:39:04.508Z,5.66
2022-12-09T06:41:36.018Z,5.67
2022-12-09T06:44:05.455Z,5.65
2022-12-09T06:46:33.775Z,5.64
2022-12-09T06:49:02.028Z,5.61
2022-12-09T06:51:32.029Z,5.57
2022-12-09T06:54:00.415Z,5.58
2022-12-09T06:56:28.914Z,5.60
2022-12-09T06:58:57.411Z,5.61
2022-12-09T07:01:26.859Z,5.63
2022-12-09T07:03:57.192Z,5.65
2022-12-09T07:06:30.136Z,5.65
2022-12-09T07:09:02.081Z,5.65
2022-12-09T07:11:31.066Z,5.63
2022-12-09T07:13:59.735Z,5.66
2022-12-09T07:16:28.451Z,5.69
2022-12-09T07:18:56.657Z,5.70
2022-12-09T07:21:25.642Z,5.73
2022-12-09T07:23:54.113Z,5.63
2022-12-09T07:26:24.896Z,5.63
2022-12-09T07:28:53.142Z,5.70
2022-12-09T07:31:23.458Z,5.74
2022-12-09T07:33:53.408Z,5.76
2022-12-09T07:36:23.191Z,5.77
2022-12-09T07:38:55.872Z,5.79
2022-12-09T07:41:25.939Z,5.77
2022-12-09T07:43:54.440Z,5.80
2022-12-09T07:46:24.336Z,5.80
2022-12-09T07:48:52.782Z,5.78
2022-12-09T07:51:21.669Z,5.83
2022-12-09T07:53:50.336Z,5.82
2022-12-09T07:56:19.437Z,5.84
2022-12-09T07:58:51.383Z,5.85
2022-12-09T08:01:21.731Z,5.78
2022-12-09T08:03:51.435Z,5.75
2022-12-09T08:06:21.625Z,5.78
2022-12-09T08:08:50.423Z,5.81
2022-12-09T08:11:21.514Z,5.86
2022-12-09T08:13:51.846Z,5.87
2022-12-09T08:16:21.804Z,5.92
2022-12-09T08:18:51.800Z,5.94
2022-12-09T08:21:22.628Z,5.94
2022-12-09T08:23:52.136Z,5.99
2022-12-09T08:26:22.512Z,6.02
2022-12-09T08:28:53.210Z,6.06
2022-12-09T08:31:23.993Z,6.10
2022-12-09T08:33:53.954Z,6.09
2022-12-09T08:36:24.276Z,6.14
2022-12-09T08:38:53.827Z,6.19
2022-12-09T08:41:35.363Z,6.24
2022-12-09T08:44:07.196Z,6.31
2022-12-09T08:46:37.255Z,6.39
2022-12-09T08:49:06.520Z,6.44
2022-12-09T08:51:36.017Z,6.53
2022-12-09T08:54:06.065Z,6.26
2022-12-09T08:56:35.388Z,6.01
2022-12-09T08:59:05.494Z,6.15
2022-12-09T09:01:36.025Z,6.20
2022-12-09T09:04:09.566Z,5.82
2022-12-09T09:06:39.520Z,6.17
2022-12-09T09:09:09.039Z,6.48
2022-12-09T09:11:37.928Z,6.69
2022-12-09T09:14:09.537Z,6.78
2022-12-09T09:16:40.847Z,6.84
2022-12-09T09:19:09.932Z,6.93
2022-12-09T09:21:38.537Z,7.03
2022-12-09T09:24:11.390Z,7.11
2022-12-09T09:26:41.922Z,7.15
2022-12-09T09:29:13.552Z,7.19
2022-12-09T09:31:42.232Z,7.28
2022-12-09T09:34:11.316Z,7.33
2022-12-09T09:36:41.573Z,7.27
2022-12-09T09:39:10.513Z,7.39
2022-12-09T09:41:46.795Z,7.43
2022-12-09T09:44:23.280Z,7.41
2022-12-09T09:46:53.618Z,7.53
2022-12-09T09:49:30.009Z,7.57
2022-12-09T09:51:58.620Z,7.60
2022-12-09T09:54:27.431Z,7.52
2022-12-09T09:57:02.104Z,7.63
2022-12-09T09:59:40.491Z,7.64
2022-12-09T10:02:19.726Z,7.77
2022-12-09T10:05:03.297Z,7.68
2022-12-09T10:07:36.778Z,7.69
2022-12-09T10:10:15.392Z,6.83
2022-12-09T10:13:00.590Z,6.82
2022-12-09T10:15:44.077Z,7.17
2022-12-09T10:18:19.192Z,6.83
2022-12-09T10:20:48.826Z,7.35
2022-12-09T10:23:18.164Z,7.65
2022-12-09T10:25:50.190Z,7.83
2022-12-09T10:28:22.385Z,7.96
2022-12-09T10:30:53.561Z,8.05
2022-12-09T10:33:28.440Z,7.98
2022-12-09T10:35:57.046Z,8.08
2022-12-09T10:38:26.821Z,8.21
2022-12-09T10:41:07.949Z,8.28
2022-12-09T10:43:42.382Z,8.29
2022-12-09T10:46:18.446Z,7.92
2022-12-09T10:48:56.299Z,8.01
2022-12-09T10:51:27.264Z,8.22
2022-12-09T10:53:59.051Z,8.35
2022-12-09T10:56:30.809Z,8.50
2022-12-09T10:59:24.852Z,8.57
2022-12-09T11:01:55.993Z,8.70
2022-12-09T11:04:27.653Z,8.80
2022-12-09T11:07:00.810Z,8.95
2022-12-09T11:09:32.190Z,8.96
2022-12-09T11:12:02.085Z,9.19
2022-12-09T11:14:35.856Z,9.24
2022-12-09T11:17:16.773Z,9.23
2022-12-09T11:19:48.960Z,9.46
2022-12-09T11:22:32.693Z,9.46
2022-12-09T11:25:24.749Z,9.59
2022-12-09T11:27:56.157Z,9.47
2022-12-09T11:30:27.139Z,9.63
2022-12-09T11:33:01.400Z,9.80
2022-12-09T11:35:33.425Z,9.84
2022-12-09T11:38:18.177Z,9.81
2022-12-09T11:41:01.563Z,9.86
2022-12-09T11:43:40.721Z,9.91
2022-12-09T11:46:23.635Z,10.07
2022-12-09T11:48:59.455Z,10.39
2022-12-09T11:51:30.947Z,10.93
2022-12-09T11:54:03.870Z,12.06
2022-12-09T11:56:33.715Z,12.78
2022-12-09T11:59:04.435Z,13.18
2022-12-09T12:01:44.540Z,12.94
2022-12-09T12:04:17.572Z,13.25
2022-12-09T12:06:50.410Z,12.91
2022-12-09T12:09:23.860Z,12.45
2022-12-09T12:12:01.797Z,12.45
2022-12-09T12:14:31.876Z,11.99
2022-12-09T12:17:09.673Z,11.74
2022-12-09T12:19:41.520Z,11.38
2022-12-09T12:22:28.793Z,11.15
2022-12-09T12:25:38.480Z,10.66
2022-12-09T12:28:22.602Z,10.36
2022-12-09T12:30:56.433Z,10.05
2022-12-09T12:36:47.387Z,10.01
2022-12-09T12:39:28.899Z,10.05
2022-12-09T12:42:03.532Z,9.94
2022-12-09T12:45:08.806Z,9.71
2022-12-09T12:47:45.744Z,9.81
2022-12-09T12:50:39.727Z,9.83
2022-12-09T12:53:18.704Z,9.50
2022-12-09T12:55:54.189Z,9.57
2022-12-09T12:58:37.077Z,9.60
2022-12-09T13:01:09.520Z,9.49
2022-12-09T13:03:51.665Z,9.49
2022-12-09T13:06:23.355Z,9.27
2022-12-09T13:09:02.692Z,9.18
2022-12-09T13:11:34.544Z,9.20
2022-12-09T13:14:07.765Z,9.00
2022-12-09T13:16:39.585Z,9.05
2022-12-09T13:19:12.546Z,8.97
2022-12-09T13:21:41.298Z,9.05
2022-12-09T13:24:22.030Z,9.02
2022-12-09T13:26:56.779Z,8.97
2022-12-09T13:29:35.682Z,9.00
2022-12-09T13:32:14.513Z,8.88
2022-12-09T13:34:45.683Z,8.90
2022-12-09T13:37:32.765Z,8.65
2022-12-09T13:40:03.371Z,8.57
2022-12-09T13:42:56.500Z,8.52
2022-12-09T13:45:34.743Z,8.58
2022-12-09T13:48:11.919Z,8.43
2022-12-09T13:50:45.607Z,8.44
2022-12-09T13:53:27.084Z,8.22
2022-12-09T13:55:59.256Z,8.25
2022-12-09T13:58:47.206Z,8.13
2022-12-09T14:01:23.933Z,8.10
2022-12-09T14:04:01.552Z,8.23
2022-12-09T14:06:34.499Z,8.31
2022-12-09T14:09:07.897Z,8.30
2022-12-09T14:11:49.178Z,8.14
2022-12-09T14:14:56.551Z,8.08
2022-12-09T14:17:59.019Z,7.97
2022-12-09T14:20:33.064Z,8.19
2022-12-09T14:23:19.661Z,7.93
2022-12-09T14:26:04.054Z,8.10
2022-12-09T14:29:00.790Z,7.94
2022-12-09T14:32:01.369Z,7.52
2022-12-09T14:34:39.134Z,7.68
2022-12-09T14:37:42.406Z,7.66
2022-12-09T14:40:28.023Z,7.79
2022-12-09T14:43:04.417Z,7.65
2022-12-09T14:45:43.873Z,7.70
2022-12-09T14:48:16.226Z,7.84
2022-12-09T14:50:44.411Z,7.73
2022-12-09T14:53:23.980Z,7.69
2022-12-09T14:55:52.675Z,7.59
2022-12-09T14:58:24.439Z,7.54
2022-12-09T15:01:02.313Z,7.27
2022-12-09T15:03:34.349Z,7.15
2022-12-09T15:06:14.103Z,7.38
2022-12-09T15:08:42.909Z,7.45
2022-12-09T15:11:14.970Z,7.36
2022-12-09T15:13:45.129Z,7.19
2022-12-09T15:16:17.373Z,6.90
2022-12-09T15:18:46.871Z,6.86
2022-12-09T15:21:28.250Z,7.15
2022-12-09T15:23:56.956Z,7.21
2022-12-09T15:26:33.775Z,6.96
2022-12-09T15:29:05.276Z,6.94
2022-12-09T15:31:35.738Z,6.84
2022-12-09T15:34:12.922Z,6.80
2022-12-09T15:36:43.517Z,6.78
2022-12-09T15:39:19.665Z,6.73
2022-12-09T15:42:10.301Z,6.45
2022-12-09T15:44:45.028Z,6.53
2022-12-09T15:47:19.781Z,6.44
2022-12-09T15:49:52.902Z,6.37
2022-12-09T15:52:26.637Z,6.11
2022-12-09T15:54:55.219Z,6.06
2022-12-09T15:57:24.529Z,5.94
2022-12-09T15:59:57.041Z,5.80
2022-12-09T16:02:30.977Z,5.84
2022-12-09T16:05:02.963Z,5.69
2022-12-09T16:07:32.880Z,5.78
2022-12-09T16:10:03.433Z,5.71
2022-12-09T16:12:34.542Z,5.54
2022-12-09T16:15:03.274Z,5.65
2022-12-09T16:17:37.768Z,5.27
2022-12-09T16:20:24.339Z,5.38
2022-12-09T16:22:52.536Z,5.48
2022-12-09T16:25:23.815Z,5.45
2022-12-09T16:27:59.249Z,5.40
2022-12-09T16:30:29.708Z,5.33
2022-12-09T16:33:00.781Z,5.35
2022-12-09T16:35:33.941Z,5.34
2022-12-09T16:38:16.494Z,5.29
2022-12-09T16:41:07.812Z,5.12
2022-12-09T16:43:36.272Z,5.26
2022-12-09T16:46:39.546Z,5.01
2022-12-09T16:49:09.164Z,5.01
2022-12-09T16:51:39.123Z,5.06
2022-12-09T16:54:19.608Z,5.18
2022-12-09T16:56:48.955Z,4.94
2022-12-09T16:59:16.996Z,5.02
2022-12-09T17:01:45.236Z,4.79
2022-12-09T17:04:18.113Z,4.87
2022-12-09T17:06:46.362Z,4.73
2022-12-09T17:09:14.570Z,4.88
2022-12-09T17:11:48.542Z,4.90
2022-12-09T17:14:18.909Z,4.93
2022-12-09T17:16:46.964Z,4.78
2022-12-09T17:19:16.465Z,4.88
2022-12-09T17:21:44.605Z,4.90
2022-12-09T17:24:12.782Z,5.14
2022-12-09T17:26:40.812Z,4.95
2022-12-09T17:29:08.893Z,4.79
2022-12-09T17:31:36.912Z,4.87
2022-12-09T17:34:04.983Z,5.02
2022-12-09T17:36:34.320Z,4.78
2022-12-09T17:39:03.419Z,4.90
2022-12-09T17:41:31.451Z,4.82
2022-12-09T17:44:01.112Z,4.93
2022-12-09T17:46:29.511Z,5.07
2022-12-09T17:48:57.994Z,5.15
2022-12-09T17:51:28.648Z,5.11
2022-12-09T17:54:00.820Z,5.11
2022-12-09T17:56:28.834Z,5.07
2022-12-09T17:58:59.102Z,5.03
2022-12-09T18:01:27.689Z,5.06
2022-12-09T18:04:00.441Z,4.56
2022-12-09T18:06:34.494Z,4.60
2022-12-09T18:09:06.192Z,4.55
2022-12-09T18:11:34.648Z,4.61
2022-12-09T18:14:02.695Z,4.68
2022-12-09T18:16:30.964Z,4.72
2022-12-09T18:19:03.361Z,4.63
2022-12-09T18:21:31.664Z,4.54
2022-12-09T18:23:59.610Z,4.78
2022-12-09T18:26:32.977Z,4.43
2022-12-09T18:29:03.442Z,4.36
2022-12-09T18:31:31.587Z,4.49
2022-12-09T18:33:59.684Z,4.50
2022-12-09T18:36:29.498Z,4.57
2022-12-09T18:38:59.443Z,4.53
2022-12-09T18:41:30.789Z,4.38
2022-12-09T18:44:01.806Z,4.41
2022-12-09T18:46:31.435Z,4.04
2022-12-09T18:49:00.836Z,4.16
2022-12-09T18:51:30.146Z,4.30
2022-12-09T18:53:59.023Z,4.39
2022-12-09T18:56:28.956Z,4.39
2022-12-09T18:59:06.386Z,4.49
2022-12-09T19:01:39.377Z,4.28
2022-12-09T19:04:09.820Z,4.37
2022-12-09T19:06:40.099Z,4.42
2022-12-09T19:09:10.018Z,4.36
2022-12-09T19:11:41.061Z,4.50
2022-12-09T19:14:10.049Z,4.24
2022-12-09T19:16:38.947Z,4.43
2022-12-09T19:19:10.000Z,4.48
2022-12-09T19:21:39.835Z,4.47
2022-12-09T19:24:08.869Z,4.43
2022-12-09T19:26:37.561Z,4.35
2022-12-09T19:29:08.891Z,4.17
2022-12-09T19:31:38.721Z,4.14
2022-12-09T19:34:08.607Z,4.14
2022-12-09T19:36:36.842Z,4.07
2022-12-09T19:39:08.335Z,4.37
2022-12-09T19:41:37.060Z,4.23
2022-12-09T19:44:06.729Z,4.29
2022-12-09T19:46:35.329Z,4.36
2022-12-09T19:49:03.763Z,4.20
2022-12-09T19:51:32.264Z,4.31
2022-12-09T19:54:02.255Z,4.25
2022-12-09T19:56:31.201Z,4.33
2022-12-09T19:59:00.510Z,4.37
2022-12-09T20:01:31.921Z,4.23
2022-12-09T20:04:19.110Z,3.83
2022-12-09T20:06:51.957Z,4.05
2022-12-09T20:09:24.120Z,4.37
2022-12-09T20:11:52.830Z,4.44
2022-12-09T20:14:21.410Z,4.20
2022-12-09T20:16:50.842Z,4.10
2022-12-09T20:19:19.838Z,4.53
2022-12-09T20:21:48.883Z,4.69
2022-12-09T20:24:17.082Z,4.33
2022-12-09T20:26:45.402Z,4.71
2022-12-09T20:29:13.678Z,4.59
2022-12-09T20:31:43.644Z,4.72
2022-12-09T20:34:16.198Z,4.40
2022-12-09T20:36:46.458Z,4.57
2022-12-09T20:39:17.903Z,4.68
2022-12-09T20:41:46.863Z,4.60
2022-12-09T20:44:15.826Z,4.62
2022-12-09T20:46:47.549Z,4.58
2022-12-09T20:49:17.135Z,4.49
2022-12-09T20:51:47.061Z,4.46
2022-12-09T20:54:15.230Z,4.38
2022-12-09T20:56:43.530Z,4.49
2022-12-09T20:59:13.681Z,4.32
2022-12-09T21:01:43.702Z,4.61
2022-12-09T21:04:11.801Z,4.53
2022-12-09T21:06:42.741Z,4.46
2022-12-09T21:09:14.852Z,4.52
2022-12-09T21:11:43.058Z,4.78
2022-12-09T21:14:12.243Z,4.73
2022-12-09T21:16:42.780Z,4.32
2022-12-09T21:19:13.431Z,4.66
2022-12-09T21:21:46.739Z,4.65
2022-12-09T21:24:16.166Z,4.50
2022-12-09T21:26:44.515Z,4.54
2022-12-09T21:29:13.383Z,4.68
2022-12-09T21:31:42.926Z,4.57
2022-12-09T21:34:12.028Z,4.63
2022-12-09T21:36:43.896Z,4.42
2022-12-09T21:39:13.307Z,4.54
2022-12-09T21:41:41.979Z,4.66
2022-12-09T21:44:14.223Z,4.65
2022-12-09T21:46:42.482Z,4.68
2022-12-09T21:49:11.882Z,4.67
2022-12-09T21:51:39.952Z,4.48
2022-12-09T21:54:09.365Z,4.73
2022-12-09T21:56:37.497Z,4.42
2022-12-09T21:59:07.448Z,4.45
2022-12-09T22:01:40.264Z,4.39
2022-12-09T22:04:10.791Z,4.49
2022-12-09T22:06:39.970Z,4.43
2022-12-09T22:09:09.749Z,4.21
2022-12-09T22:11:39.563Z,4.56
2022-12-09T22:14:09.149Z,4.50
2022-12-09T22:16:39.853Z,4.42
2022-12-09T22:19:09.318Z,4.57
2022-12-09T22:21:37.539Z,4.65
2022-12-09T22:24:08.064Z,4.51
2022-12-09T22:26:37.561Z,4.47
2022-12-09T22:29:06.661Z,4.38
2022-12-09T22:31:36.619Z,4.43
2022-12-09T22:34:06.639Z,4.32
2022-12-09T22:36:37.077Z,4.29
2022-12-09T22:39:06.904Z,3.99
2022-12-09T22:41:35.644Z,4.34
2022-12-09T22:44:06.003Z,4.32
2022-12-09T22:46:35.237Z,4.40
2022-12-09T22:49:05.014Z,4.46
2022-12-09T22:51:34.758Z,4.36
2022-12-09T22:54:05.358Z,4.56
2022-12-09T22:56:34.129Z,4.77
2022-12-09T22:59:02.391Z,4.46
2022-12-09T23:01:35.599Z,4.51
2022-12-09T23:04:04.703Z,4.48
2022-12-09T23:06:32.744Z,4.57
2022-12-09T23:09:00.749Z,4.81
2022-12-09T23:11:29.915Z,4.48
2022-12-09T23:14:00.545Z,4.69
2022-12-09T23:16:28.973Z,4.83
2022-12-09T23:18:59.681Z,4.94
2022-12-09T23:21:30.244Z,4.94
2022-12-09T23:24:00.214Z,4.63
2022-12-09T23:26:30.941Z,4.75
2022-12-09T23:29:01.929Z,4.76
2022-12-09T23:31:32.847Z,4.93
2022-12-09T23:34:04.169Z,4.87
2022-12-09T23:36:34.501Z,4.84
2022-12-09T23:39:04.741Z,4.93
2022-12-09T23:41:32.728Z,4.97
2022-12-09T23:44:00.697Z,4.98
2022-12-09T23:46:30.539Z,5.11
2022-12-09T23:48:58.684Z,5.13
2022-12-09T23:51:30.348Z,5.03
2022-12-09T23:54:00.279Z,5.14
2022-12-09T23:56:30.137Z,5.22
2022-12-09T23:59:00.212Z,5.05
